Terminal Aerodrome Forecast
Issued by NWS

Home | Current Version | Previous Version | Text Only | Print | Product List | Glossary On
Versions: 1 2 3 4 5 6 7 8 9 10 11 12 13 14 15 16 17 18 19 20 21 22 23
000
FTUS43 KFGF 231300 AAB
TAFTVF
TAF AMD
KTVF 231316Z 2313/2412 05009KT 1/2SM FG OVC003
      TEMPO 2313/2315 1SM BR OVC002
     FM231500 05008KT 3SM BR OVC005
     FM231900 05008KT P6SM -RA OVC015
      AMD LTD TO CLD VIS AND WIND=

USA.gov is the U.S. government's official web portal to all federal, state and local government web resources and services.